Time;durP1;ratioP1;P1;durP2;ratioP2;P2;SDS_P1;SDS_P2;PMS_P1;PMS_P2;Temp;Humidity;BMP_temperature;BMP_pressure;BME280_temperature;BME280_humidity;BME280_pressure;Samples;Min_cycle;Max_cycle;Signal;HPM_P1;HPM_P2
2023/08/26 00:02:26;;;;;;;;;;;31.40;63.80;;;;;;5045504;28;43163;-85
2023/08/26 00:04:52;;;;;;;;;;;31.20;63.80;;;;;;5063955;28;43480;-85
2023/08/26 00:07:17;;;;;;;;;;;31.30;63.20;;;;;;5062728;28;43021;-85
2023/08/26 00:09:43;;;;;;;;;;;31.40;63.80;;;;;;5064522;28;43042;-84
2023/08/26 00:12:08;;;;;;;;;;;31.30;63.10;;;;;;5064612;28;42939;-85
2023/08/26 00:14:34;;;;;;;;;;;31.20;63.10;;;;;;5063951;28;42833;-84
2023/08/26 00:17:00;;;;;;;;;;;31.30;63.30;;;;;;5062274;28;42922;-85
2023/08/26 00:19:25;;;;;;;;;;;31.20;64.00;;;;;;5064310;28;43467;-85
2023/08/26 00:21:51;;;;;;;;;;;31.30;63.20;;;;;;5064327;28;42877;-85
2023/08/26 00:24:17;;;;;;;;;;;31.20;63.20;;;;;;5064039;28;43797;-85
2023/08/26 00:26:42;;;;;;;;;;;31.20;63.90;;;;;;5064027;28;42920;-85
2023/08/26 00:29:08;;;;;;;;;;;31.20;63.20;;;;;;5063612;28;42951;-84
2023/08/26 00:31:33;;;;;;;;;;;31.20;63.90;;;;;;5064077;28;42846;-84
2023/08/26 00:34:02;;;;;;;;;;;31.10;63.20;;;;;;5067274;28;42887;-84
2023/08/26 00:36:28;;;;;;;;;;;31.20;63.70;;;;;;5067523;28;43036;-85
2023/08/26 00:38:53;;;;;;;;;;;31.20;63.20;;;;;;5067217;28;43739;-84
2023/08/26 00:41:19;;;;;;;;;;;31.30;64.00;;;;;;5066912;28;42912;-85
2023/08/26 00:43:45;;;;;;;;;;;31.20;63.20;;;;;;5067123;28;42801;-84
2023/08/26 00:46:11;;;;;;;;;;;31.10;63.80;;;;;;5066752;28;43010;-84
2023/08/26 00:48:36;;;;;;;;;;;31.10;63.80;;;;;;5066792;28;43876;-85
2023/08/26 00:51:02;;;;;;;;;;;31.20;63.40;;;;;;5067167;28;42949;-85
2023/08/26 00:53:27;;;;;;;;;;;31.10;63.30;;;;;;5066754;28;42943;-84
2023/08/26 00:55:53;;;;;;;;;;;31.20;63.50;;;;;;5065158;28;42925;-84
2023/08/26 00:58:18;;;;;;;;;;;31.10;64.00;;;;;;5065342;28;43628;-84
2023/08/26 01:00:44;;;;;;;;;;;31.00;63.80;;;;;;5067181;28;43037;-84
2023/08/26 01:03:09;;;;;;;;;;;31.10;63.90;;;;;;5065487;28;44800;-84
2023/08/26 01:05:35;;;;;;;;;;;31.50;64.30;;;;;;5066895;28;42952;-85
2023/08/26 01:08:02;;;;;;;;;;;31.00;63.90;;;;;;5066645;28;43692;-85
2023/08/26 01:10:45;;;;;;;;;;;31.10;64.00;;;;;;5066884;28;42999;-84
2023/08/26 01:13:12;;;;;;;;;;;31.00;61.10;;;;;;5064874;28;44073;-84
2023/08/26 01:15:40;;;;;;;;;;;31.00;63.90;;;;;;5065888;28;42887;-84
2023/08/26 01:18:07;;;;;;;;;;;31.30;64.30;;;;;;5066689;28;43104;-85
2023/08/26 01:20:32;;;;;;;;;;;30.90;63.90;;;;;;5066246;28;42747;-84
2023/08/26 01:22:59;;;;;;;;;;;30.90;63.90;;;;;;5066617;28;42936;-84
2023/08/26 01:25:25;;;;;;;;;;;31.40;64.30;;;;;;5066796;28;43016;-84
2023/08/26 01:27:50;;;;;;;;;;;31.00;63.40;;;;;;5066649;28;43404;-84
2023/08/26 01:30:16;;;;;;;;;;;30.90;64.00;;;;;;5066522;28;42911;-84
2023/08/26 01:32:44;;;;;;;;;;;31.20;64.30;;;;;;5066654;28;43636;-84
2023/08/26 01:35:12;;;;;;;;;;;30.80;61.10;;;;;;5066915;28;42817;-84
2023/08/26 01:37:39;;;;;;;;;;;30.90;63.40;;;;;;5066377;28;43519;-85
2023/08/26 01:40:06;;;;;;;;;;;30.90;64.00;;;;;;5064575;28;43012;-85
2023/08/26 01:42:31;;;;;;;;;;;31.00;63.50;;;;;;5066759;28;43294;-84
2023/08/26 01:44:57;;;;;;;;;;;30.90;64.20;;;;;;5065819;28;42829;-84
2023/08/26 01:47:22;;;;;;;;;;;30.90;64.20;;;;;;5061270;28;42997;-84
2023/08/26 01:49:48;;;;;;;;;;;30.80;63.50;;;;;;5044430;28;42997;-85
2023/08/26 01:52:14;;;;;;;;;;;31.00;64.30;;;;;;5041885;28;43569;-84
2023/08/26 01:54:39;;;;;;;;;;;30.80;63.60;;;;;;5044256;28;43082;-84
2023/08/26 01:57:07;;;;;;;;;;;30.60;60.70;;;;;;5044119;28;63265;-84
2023/08/26 01:59:32;;;;;;;;;;;30.80;64.00;;;;;;5045754;28;42772;-84
2023/08/26 02:01:58;;;;;;;;;;;30.90;64.10;;;;;;5044924;28;42925;-84
2023/08/26 02:04:23;;;;;;;;;;;31.00;64.30;;;;;;5044959;28;42752;-84
2023/08/26 02:06:49;;;;;;;;;;;30.80;64.10;;;;;;5044636;28;43861;-84
2023/08/26 02:09:14;;;;;;;;;;;30.60;63.90;;;;;;5044851;28;42912;-84
2023/08/26 02:11:40;;;;;;;;;;;30.80;64.20;;;;;;5045130;28;43846;-84
2023/08/26 02:14:05;;;;;;;;;;;30.80;63.70;;;;;;5043937;28;42882;-84
2023/08/26 02:16:31;;;;;;;;;;;30.80;64.30;;;;;;5045386;28;43647;-84
2023/08/26 02:18:56;;;;;;;;;;;30.80;63.70;;;;;;5044636;28;43229;-84
2023/08/26 02:21:22;;;;;;;;;;;30.90;64.40;;;;;;5060305;28;43460;-84
2023/08/26 02:23:47;;;;;;;;;;;30.90;64.40;;;;;;5044944;28;42911;-84
2023/08/26 02:26:13;;;;;;;;;;;30.80;64.30;;;;;;5044756;28;43070;-84
2023/08/26 02:28:38;;;;;;;;;;;30.70;63.70;;;;;;5044682;28;42971;-84
2023/08/26 02:31:04;;;;;;;;;;;30.60;63.30;;;;;;5045194;28;42912;-85
2023/08/26 02:33:30;;;;;;;;;;;30.40;63.90;;;;;;5043224;28;42949;-84
2023/08/26 02:35:56;;;;;;;;;;;30.90;64.60;;;;;;5044669;28;43649;-84
2023/08/26 02:38:21;;;;;;;;;;;30.60;64.60;;;;;;5044616;28;42732;-84
2023/08/26 02:40:53;;;;;;;;;;;30.60;63.70;;;;;;5044816;28;42877;-84
2023/08/26 02:43:20;;;;;;;;;;;30.70;61.50;;;;;;5044255;28;42844;-84
2023/08/26 02:45:45;;;;;;;;;;;30.70;64.20;;;;;;5044906;28;42952;-84
2023/08/26 02:48:11;;;;;;;;;;;30.50;63.70;;;;;;5044106;28;42753;-84
2023/08/26 02:50:38;;;;;;;;;;;30.60;63.70;;;;;;5044687;28;43717;-84
2023/08/26 02:53:03;;;;;;;;;;;30.60;64.20;;;;;;5043139;28;42937;-84
2023/08/26 02:55:29;;;;;;;;;;;30.60;64.30;;;;;;5042036;28;43544;-84
2023/08/26 02:57:55;;;;;;;;;;;30.60;64.50;;;;;;5044357;28;42941;-84
2023/08/26 03:00:20;;;;;;;;;;;30.70;64.60;;;;;;5044032;28;42909;-84
2023/08/26 03:02:46;;;;;;;;;;;30.60;63.80;;;;;;5044523;28;42980;-84
2023/08/26 03:05:11;;;;;;;;;;;30.60;63.80;;;;;;5043423;28;43045;-84
2023/08/26 03:07:37;;;;;;;;;;;30.40;64.20;;;;;;5044229;28;43013;-84
2023/08/26 03:10:02;;;;;;;;;;;30.60;63.80;;;;;;5044639;28;43592;-84
2023/08/26 03:12:28;;;;;;;;;;;30.40;64.10;;;;;;5042726;28;43075;-84
2023/08/26 03:14:53;;;;;;;;;;;30.50;64.20;;;;;;5044161;28;43376;-84
2023/08/26 03:17:19;;;;;;;;;;;30.60;65.00;;;;;;5042988;28;42923;-84
2023/08/26 03:19:44;;;;;;;;;;;30.50;63.80;;;;;;5044292;28;42911;-84
2023/08/26 03:22:10;;;;;;;;;;;30.40;63.80;;;;;;5043294;28;42989;-84
2023/08/26 03:24:36;;;;;;;;;;;30.50;64.30;;;;;;5044401;28;43278;-84
2023/08/26 03:27:02;;;;;;;;;;;30.50;64.30;;;;;;5044219;28;43007;-84
2023/08/26 03:29:27;;;;;;;;;;;30.50;64.20;;;;;;5043591;28;42910;-84
2023/08/26 03:31:53;;;;;;;;;;;30.40;63.80;;;;;;5041917;28;42898;-84
2023/08/26 03:34:18;;;;;;;;;;;30.60;64.60;;;;;;5043946;28;42918;-84
2023/08/26 03:36:44;;;;;;;;;;;30.40;64.40;;;;;;5044381;28;43000;-84
2023/08/26 03:39:09;;;;;;;;;;;30.50;64.50;;;;;;5043618;28;43061;-84
2023/08/26 03:41:35;;;;;;;;;;;30.50;63.80;;;;;;5043069;28;43049;-84
2023/08/26 03:44:01;;;;;;;;;;;30.40;64.30;;;;;;5043839;28;43406;-84
2023/08/26 03:46:26;;;;;;;;;;;30.20;64.20;;;;;;5043700;28;42841;-84
2023/08/26 03:48:52;;;;;;;;;;;30.40;63.90;;;;;;5043483;28;43651;-84
2023/08/26 03:51:18;;;;;;;;;;;30.40;64.60;;;;;;5043040;28;42912;-84
2023/08/26 03:53:43;;;;;;;;;;;30.40;64.40;;;;;;5044228;28;43583;-84
2023/08/26 03:56:09;;;;;;;;;;;30.40;64.50;;;;;;5044041;28;43027;-84
2023/08/26 03:58:34;;;;;;;;;;;30.40;63.90;;;;;;5043889;28;42941;-84
2023/08/26 04:01:01;;;;;;;;;;;30.20;64.30;;;;;;5043696;28;42987;-84
2023/08/26 04:03:26;;;;;;;;;;;30.30;64.50;;;;;;5043359;28;42893;-84
2023/08/26 04:06:02;;;;;;;;;;;30.30;63.90;;;;;;5043629;28;42945;-84
2023/08/26 04:08:33;;;;;;;;;;;30.30;61.60;;;;;;5046354;28;42952;-84
2023/08/26 04:10:59;;;;;;;;;;;30.40;61.80;;;;;;5047603;28;42847;-84
2023/08/26 04:13:25;;;;;;;;;;;30.70;64.90;;;;;;5046518;28;43439;-84
2023/08/26 04:15:53;;;;;;;;;;;30.10;63.80;;;;;;5046277;28;42916;-84
2023/08/26 04:18:19;;;;;;;;;;;30.30;63.90;;;;;;5046092;28;42917;-84
2023/08/26 04:20:44;;;;;;;;;;;30.20;63.90;;;;;;5049671;28;43079;-85
2023/08/26 04:23:10;;;;;;;;;;;30.20;63.90;;;;;;5055539;28;42969;-84
2023/08/26 04:25:35;;;;;;;;;;;30.20;63.90;;;;;;5061699;28;42949;-84
2023/08/26 04:28:01;;;;;;;;;;;30.20;63.90;;;;;;5066840;28;43397;-84
2023/08/26 04:30:30;;;;;;;;;;;30.10;63.80;;;;;;5072810;28;43278;-84
2023/08/26 04:32:55;;;;;;;;;;;30.10;61.90;;;;;;5075353;27;43147;-84
2023/08/26 04:35:21;;;;;;;;;;;30.30;64.00;;;;;;5077576;27;42973;-84
2023/08/26 04:37:46;;;;;;;;;;;30.20;64.00;;;;;;5076392;28;43504;-81
2023/08/26 04:40:15;;;;;;;;;;;30.00;63.60;;;;;;5071141;28;43058;-82
2023/08/26 04:42:40;;;;;;;;;;;30.20;61.30;;;;;;5070157;28;42963;-80
2023/08/26 04:45:06;;;;;;;;;;;30.20;63.90;;;;;;5065455;28;42969;-83
2023/08/26 04:47:32;;;;;;;;;;;30.10;63.80;;;;;;5050277;28;43031;-85
2023/08/26 04:49:58;;;;;;;;;;;30.10;64.00;;;;;;5065247;28;42914;-86
2023/08/26 04:52:24;;;;;;;;;;;30.10;64.00;;;;;;5074110;28;44009;-83
2023/08/26 04:54:50;;;;;;;;;;;30.10;64.00;;;;;;5070892;27;43019;-80
2023/08/26 04:57:17;;;;;;;;;;;30.00;63.80;;;;;;5065414;28;43092;-81
2023/08/26 04:59:42;;;;;;;;;;;30.20;64.70;;;;;;5065820;28;43009;-81
2023/08/26 05:02:08;;;;;;;;;;;30.30;64.80;;;;;;5065221;28;44024;-81
2023/08/26 05:04:34;;;;;;;;;;;30.10;64.00;;;;;;5065494;28;42915;-82
2023/08/26 05:06:59;;;;;;;;;;;30.10;64.10;;;;;;5065389;28;43475;-82
2023/08/26 05:09:25;;;;;;;;;;;30.00;64.10;;;;;;5066091;28;43181;-87
2023/08/26 05:11:50;;;;;;;;;;;30.10;63.10;;;;;;5062682;28;43159;-89
2023/08/26 05:14:16;;;;;;;;;;;30.20;62.10;;;;;;5077839;28;43001;-90
2023/08/26 05:16:42;;;;;;;;;;;30.10;62.90;;;;;;5068460;28;44066;-90
2023/08/26 05:19:07;;;;;;;;;;;29.80;62.40;;;;;;5064367;28;42838;-88
2023/08/26 05:21:33;;;;;;;;;;;30.00;62.80;;;;;;5065365;28;43425;-92
2023/08/26 05:24:00;;;;;;;;;;;30.00;62.30;;;;;;5057791;28;43012;-92
2023/08/26 05:26:25;;;;;;;;;;;27.80;61.40;;;;;;5066450;28;42793;-93
2023/08/26 05:28:51;;;;;;;;;;;30.10;63.30;;;;;;5067043;28;43048;-93
2023/08/26 05:31:16;;;;;;;;;;;30.20;63.20;;;;;;5066238;28;42813;-92
2023/08/26 05:33:42;;;;;;;;;;;30.10;63.50;;;;;;5065715;28;43807;-79
2023/08/26 05:36:07;;;;;;;;;;;30.10;63.30;;;;;;5065814;28;42830;-87
2023/08/26 05:38:33;;;;;;;;;;;29.90;63.20;;;;;;5066378;28;42940;-79
2023/08/26 05:40:58;;;;;;;;;;;30.10;63.40;;;;;;5066359;28;43756;-90
2023/08/26 05:43:29;;;;;;;;;;;29.80;63.30;;;;;;5065926;28;42964;-91
2023/08/26 05:45:57;;;;;;;;;;;29.90;63.30;;;;;;5065545;28;43923;-92
2023/08/26 05:48:23;;;;;;;;;;;30.30;63.70;;;;;;5063707;28;42854;-92
2023/08/26 05:50:49;;;;;;;;;;;30.00;62.90;;;;;;5064652;28;43134;-91
2023/08/26 05:53:14;;;;;;;;;;;29.90;63.40;;;;;;5065081;28;43185;-92
2023/08/26 05:55:43;;;;;;;;;;;30.20;63.90;;;;;;5066131;28;43586;-87
2023/08/26 05:58:09;;;;;;;;;;;30.00;61.00;;;;;;5066112;28;42943;-89
2023/08/26 06:00:34;;;;;;;;;;;30.00;63.90;;;;;;5065196;28;43810;-92
2023/08/26 06:03:00;;;;;;;;;;;29.80;63.50;;;;;;5064249;28;42979;-91
2023/08/26 06:05:26;;;;;;;;;;;30.00;63.40;;;;;;5066314;28;43753;-90
2023/08/26 06:07:51;;;;;;;;;;;30.00;63.60;;;;;;5065352;28;42917;-93
2023/08/26 06:10:17;;;;;;;;;;;30.20;63.60;;;;;;5064423;28;43638;-90
2023/08/26 06:12:43;;;;;;;;;;;30.10;63.40;;;;;;5065208;28;42987;-90
2023/08/26 06:15:09;;;;;;;;;;;29.90;63.00;;;;;;5065497;28;42885;-92
2023/08/26 06:17:35;;;;;;;;;;;30.10;63.40;;;;;;5064972;28;42774;-86
2023/08/26 06:20:03;;;;;;;;;;;30.00;63.20;;;;;;5064574;28;43088;-83
2023/08/26 06:22:28;;;;;;;;;;;29.90;63.40;;;;;;5064103;28;42923;-79
2023/08/26 06:24:54;;;;;;;;;;;30.00;63.50;;;;;;5065285;28;43546;-89
2023/08/26 06:27:20;;;;;;;;;;;30.00;63.60;;;;;;5065311;28;43210;-88
2023/08/26 06:29:53;;;;;;;;;;;29.80;63.50;;;;;;5064140;28;44243;-81
2023/08/26 06:32:21;;;;;;;;;;;30.00;60.90;;;;;;5063815;28;43102;-86
2023/08/26 06:34:47;;;;;;;;;;;29.90;60.90;;;;;;5064338;28;42954;-90
2023/08/26 06:37:13;;;;;;;;;;;30.10;63.70;;;;;;5064921;28;42941;-87
2023/08/26 06:39:38;;;;;;;;;;;30.00;63.60;;;;;;5064949;28;43037;-89
2023/08/26 06:42:04;;;;;;;;;;;29.80;63.50;;;;;;5064047;28;42862;-90
2023/08/26 06:44:29;;;;;;;;;;;30.00;63.30;;;;;;5064752;28;42980;-89
2023/08/26 06:46:56;;;;;;;;;;;29.90;63.70;;;;;;5064560;28;42948;-85
2023/08/26 06:49:21;;;;;;;;;;;29.90;63.70;;;;;;5065663;28;42818;-87
2023/08/26 06:51:47;;;;;;;;;;;29.90;63.70;;;;;;5066094;28;44102;-88
2023/08/26 06:54:12;;;;;;;;;;;30.00;63.90;;;;;;5067085;28;42902;-84
2023/08/26 06:56:38;;;;;;;;;;;30.00;63.30;;;;;;5064229;28;42924;-89
2023/08/26 06:59:03;;;;;;;;;;;30.00;63.90;;;;;;5065301;28;43003;-80
2023/08/26 07:01:31;;;;;;;;;;;29.90;63.70;;;;;;5063627;28;42971;-89
2023/08/26 07:04:06;;;;;;;;;;;29.80;63.90;;;;;;5062990;28;45325;-88
2023/08/26 07:06:32;;;;;;;;;;;29.70;61.10;;;;;;5063564;28;42954;-89
2023/08/26 07:08:58;;;;;;;;;;;29.90;64.10;;;;;;5064353;28;43734;-89
2023/08/26 07:11:24;;;;;;;;;;;30.10;64.20;;;;;;5064145;28;43047;-88
2023/08/26 07:13:49;;;;;;;;;;;29.80;64.10;;;;;;5064417;28;43031;-87
2023/08/26 07:16:15;;;;;;;;;;;29.80;63.90;;;;;;5064337;28;43090;-86
2023/08/26 07:18:40;;;;;;;;;;;30.00;64.20;;;;;;5059468;28;43335;-88
2023/08/26 07:21:06;;;;;;;;;;;30.10;64.10;;;;;;5063710;28;43055;-89
2023/08/26 07:23:32;;;;;;;;;;;29.90;63.90;;;;;;5064099;28;44211;-79
2023/08/26 07:25:57;;;;;;;;;;;30.10;64.00;;;;;;5063473;28;43043;-87
2023/08/26 07:28:23;;;;;;;;;;;30.10;63.90;;;;;;5064767;28;42768;-86
2023/08/26 07:30:49;;;;;;;;;;;30.00;63.90;;;;;;5064091;28;42983;-87
2023/08/26 07:33:14;;;;;;;;;;;30.00;63.90;;;;;;5063639;28;43411;-88
2023/08/26 07:35:40;;;;;;;;;;;30.60;64.20;;;;;;5062950;28;43075;-89
2023/08/26 07:38:05;;;;;;;;;;;30.00;63.90;;;;;;5064510;28;42950;-81
2023/08/26 07:40:31;;;;;;;;;;;30.00;63.90;;;;;;5063703;28;43062;-88
2023/08/26 07:42:56;;;;;;;;;;;30.20;63.60;;;;;;5066571;28;43051;-89
2023/08/26 07:45:22;;;;;;;;;;;30.00;63.40;;;;;;5067947;28;42864;-88
2023/08/26 07:47:48;;;;;;;;;;;30.20;64.20;;;;;;5067136;28;42916;-87
2023/08/26 07:50:13;;;;;;;;;;;30.20;64.50;;;;;;5066957;28;42865;-87
2023/08/26 07:52:39;;;;;;;;;;;30.40;64.30;;;;;;5065884;28;43216;-86
2023/08/26 07:55:05;;;;;;;;;;;30.20;64.20;;;;;;5066649;28;43227;-84
2023/08/26 07:57:30;;;;;;;;;;;30.10;63.50;;;;;;5067921;28;42865;-87
2023/08/26 07:59:56;;;;;;;;;;;30.00;64.00;;;;;;5066988;28;43026;-86
2023/08/26 08:02:21;;;;;;;;;;;30.00;63.90;;;;;;5066339;28;43021;-88
2023/08/26 08:04:47;;;;;;;;;;;30.20;64.00;;;;;;5067878;28;42964;-84
2023/08/26 08:07:13;;;;;;;;;;;30.20;63.70;;;;;;5066564;28;43565;-86
2023/08/26 08:09:39;;;;;;;;;;;30.10;63.60;;;;;;5066090;28;42977;-87
2023/08/26 08:12:04;;;;;;;;;;;30.20;63.40;;;;;;5065932;28;44308;-87
2023/08/26 08:14:30;;;;;;;;;;;30.20;62.80;;;;;;5064243;28;42930;-87
2023/08/26 08:16:55;;;;;;;;;;;30.30;62.90;;;;;;5066630;28;42972;-86
2023/08/26 08:19:21;;;;;;;;;;;30.20;62.80;;;;;;5066917;28;43094;-87
2023/08/26 08:21:47;;;;;;;;;;;30.10;62.60;;;;;;5066291;28;42990;-89
2023/08/26 08:24:13;;;;;;;;;;;30.20;62.70;;;;;;5067286;28;42873;-82
2023/08/26 08:26:43;;;;;;;;;;;30.20;62.50;;;;;;5066650;28;42974;-86
2023/08/26 08:29:09;;;;;;;;;;;30.20;62.00;;;;;;5066814;28;43042;-87
2023/08/26 08:31:35;;;;;;;;;;;30.20;61.60;;;;;;5065855;28;42837;-89
2023/08/26 08:34:00;;;;;;;;;;;30.20;61.60;;;;;;5065766;28;42943;-86
2023/08/26 08:36:26;;;;;;;;;;;30.30;61.30;;;;;;5065382;28;42882;-87
2023/08/26 08:38:51;;;;;;;;;;;30.10;61.50;;;;;;5067137;28;43016;-87
2023/08/26 08:41:18;;;;;;;;;;;30.20;60.90;;;;;;5066424;28;43027;-79
2023/08/26 08:43:45;;;;;;;;;;;30.20;60.60;;;;;;5067420;28;42905;-80
2023/08/26 08:46:13;;;;;;;;;;;30.20;60.90;;;;;;5067170;28;43121;-85
2023/08/26 08:48:39;;;;;;;;;;;30.50;61.00;;;;;;5065389;28;42995;-85
2023/08/26 08:51:04;;;;;;;;;;;30.30;60.70;;;;;;5066678;28;42975;-87
2023/08/26 08:53:30;;;;;;;;;;;30.20;60.00;;;;;;5066309;28;43061;-88
2023/08/26 08:55:56;;;;;;;;;;;30.10;60.40;;;;;;5066726;28;42917;-88
2023/08/26 08:58:22;;;;;;;;;;;30.10;59.70;;;;;;5067460;28;42994;-88
2023/08/26 09:00:48;;;;;;;;;;;30.20;60.10;;;;;;5067118;28;43648;-89
2023/08/26 09:03:14;;;;;;;;;;;30.20;60.40;;;;;;5069638;28;43085;-89
2023/08/26 09:05:40;;;;;;;;;;;30.30;60.20;;;;;;5069927;28;43904;-88
2023/08/26 09:08:08;;;;;;;;;;;30.30;59.70;;;;;;5069777;28;42897;-88
2023/08/26 09:10:34;;;;;;;;;;;30.20;59.60;;;;;;5069047;28;43019;-89
2023/08/26 09:13:00;;;;;;;;;;;30.30;60.00;;;;;;5069788;28;43180;-88
2023/08/26 09:15:26;;;;;;;;;;;30.30;60.10;;;;;;5084843;28;42967;-82
2023/08/26 09:17:56;;;;;;;;;;;30.30;59.50;;;;;;5089938;27;42894;-88
2023/08/26 09:20:21;;;;;;;;;;;30.20;59.40;;;;;;5069105;28;44767;-86
2023/08/26 09:22:47;;;;;;;;;;;30.30;59.50;;;;;;5070081;28;42951;-89
2023/08/26 09:25:15;;;;;;;;;;;30.40;59.40;;;;;;5074376;28;43242;-88
2023/08/26 09:27:41;;;;;;;;;;;30.30;57.30;;;;;;5066418;28;43046;-89
2023/08/26 09:30:07;;;;;;;;;;;30.90;59.70;;;;;;5064246;28;43186;-88
2023/08/26 09:32:36;;;;;;;;;;;30.40;58.90;;;;;;5065838;28;43066;-84
2023/08/26 09:35:12;;;;;;;;;;;30.40;57.20;;;;;;5068561;28;43555;-83
2023/08/26 09:37:38;;;;;;;;;;;30.30;57.10;;;;;;5068803;28;42916;-82
2023/08/26 09:40:04;;;;;;;;;;;30.50;59.50;;;;;;5069762;28;42790;-88
2023/08/26 09:42:30;;;;;;;;;;;30.40;58.90;;;;;;5068390;28;43067;-84
2023/08/26 09:44:56;;;;;;;;;;;30.40;59.40;;;;;;5057352;28;44485;-87
2023/08/26 09:47:22;;;;;;;;;;;30.40;58.90;;;;;;5065315;28;42978;-86
2023/08/26 09:49:49;;;;;;;;;;;30.40;59.40;;;;;;5065968;28;42912;-89
2023/08/26 09:52:15;;;;;;;;;;;30.50;58.50;;;;;;5063867;28;43010;-89
2023/08/26 09:54:42;;;;;;;;;;;30.50;58.20;;;;;;5065662;28;43068;-82
2023/08/26 09:57:08;;;;;;;;;;;30.40;58.60;;;;;;5065853;28;43043;-89
2023/08/26 09:59:33;;;;;;;;;;;30.50;58.80;;;;;;5065696;28;42929;-91
2023/08/26 10:02:03;;;;;;;;;;;30.80;58.70;;;;;;5065219;28;42946;-91
2023/08/26 10:04:32;;;;;;;;;;;30.40;57.60;;;;;;5066441;28;43941;-90
2023/08/26 10:06:58;;;;;;;;;;;30.50;58.20;;;;;;5066147;27;43133;-90
2023/08/26 10:09:24;;;;;;;;;;;30.50;57.60;;;;;;5065738;28;43720;-89
2023/08/26 10:11:50;;;;;;;;;;;30.40;57.40;;;;;;5065055;28;42924;-90
2023/08/26 10:14:17;;;;;;;;;;;30.80;58.20;;;;;;5064033;28;43451;-90
2023/08/26 10:16:44;;;;;;;;;;;30.50;57.20;;;;;;5066175;28;43317;-94
2023/08/26 10:19:09;;;;;;;;;;;30.40;57.20;;;;;;5065196;28;43975;-94
2023/08/26 10:21:36;;;;;;;;;;;30.60;56.80;;;;;;5065699;28;42885;-90
2023/08/26 10:24:02;;;;;;;;;;;30.50;56.60;;;;;;5064188;28;42821;-90
2023/08/26 10:26:28;;;;;;;;;;;30.50;56.60;;;;;;5064506;28;42918;-92
2023/08/26 10:28:55;;;;;;;;;;;30.50;57.30;;;;;;5065010;28;43014;-86
2023/08/26 10:31:21;;;;;;;;;;;30.60;57.30;;;;;;5064924;28;42887;-91
2023/08/26 10:34:05;;;;;;;;;;;30.60;56.80;;;;;;5064937;28;43459;-92
2023/08/26 10:36:33;;;;;;;;;;;30.60;54.90;;;;;;5064589;28;43004;-87
2023/08/26 10:38:59;;;;;;;;;;;30.60;57.50;;;;;;5064458;28;42937;-87
2023/08/26 10:41:25;;;;;;;;;;;30.60;57.10;;;;;;5064294;28;42951;-87
2023/08/26 10:43:54;;;;;;;;;;;30.50;57.00;;;;;;5063994;28;43498;-85
2023/08/26 10:46:40;;;;;;;;;;;30.60;57.00;;;;;;5065760;28;42767;-94
2023/08/26 10:49:06;;;;;;;;;;;30.60;57.80;;;;;;5064324;28;43796;-91
2023/08/26 10:51:34;;;;;;;;;;;30.50;57.30;;;;;;5067544;28;42860;-92
2023/08/26 10:54:03;;;;;;;;;;;30.70;58.20;;;;;;5068625;28;43137;-88
2023/08/26 10:56:33;;;;;;;;;;;30.70;57.50;;;;;;5064568;28;42882;-89
2023/08/26 10:59:06;;;;;;;;;;;30.70;57.40;;;;;;5043481;28;44276;-91
2023/08/26 11:01:38;;;;;;;;;;;30.60;55.30;;;;;;5051229;28;42800;-87
2023/08/26 11:04:04;;;;;;;;;;;30.60;55.10;;;;;;5062515;28;44842;-90
2023/08/26 11:06:37;;;;;;;;;;;30.50;57.30;;;;;;5064345;28;43016;-88
2023/08/26 11:09:03;;;;;;;;;;;30.90;55.30;;;;;;5062947;28;45267;-91
2023/08/26 11:11:28;;;;;;;;;;;30.60;57.60;;;;;;5064636;28;42925;-90
2023/08/26 11:13:54;;;;;;;;;;;30.60;57.90;;;;;;5063757;28;42942;-87
2023/08/26 11:16:20;;;;;;;;;;;30.60;57.30;;;;;;5063064;28;42834;-89
2023/08/26 11:18:46;;;;;;;;;;;30.70;57.00;;;;;;5064045;28;43743;-89
2023/08/26 11:21:12;;;;;;;;;;;30.60;57.00;;;;;;5063854;28;43208;-88
2023/08/26 11:23:38;;;;;;;;;;;30.60;57.90;;;;;;5062874;28;43371;-88
2023/08/26 11:26:05;;;;;;;;;;;30.60;57.30;;;;;;5064507;28;43105;-89
2023/08/26 11:28:31;;;;;;;;;;;30.70;57.00;;;;;;5064766;28;42935;-89
2023/08/26 11:30:56;;;;;;;;;;;30.70;56.50;;;;;;5063259;28;43058;-85
2023/08/26 11:33:23;;;;;;;;;;;30.60;56.60;;;;;;5064229;28;42954;-90
2023/08/26 11:35:49;;;;;;;;;;;30.60;57.10;;;;;;5063503;28;42956;-85
2023/08/26 11:38:15;;;;;;;;;;;30.60;56.60;;;;;;5063800;28;42982;-90
2023/08/26 11:40:40;;;;;;;;;;;30.60;57.00;;;;;;5064900;28;43168;-94
2023/08/26 11:43:09;;;;;;;;;;;30.90;57.20;;;;;;5074759;28;43363;-94
2023/08/26 11:45:39;;;;;;;;;;;30.60;54.40;;;;;;5070805;28;42808;-90
2023/08/26 11:48:05;;;;;;;;;;;30.60;56.40;;;;;;5071167;28;43575;-89
2023/08/26 11:50:31;;;;;;;;;;;30.80;56.50;;;;;;5070705;28;43050;-92
2023/08/26 11:53:00;;;;;;;;;;;30.80;56.60;;;;;;5060640;28;42960;-86
2023/08/26 11:55:28;;;;;;;;;;;30.70;56.50;;;;;;5066150;28;43063;-92
2023/08/26 11:57:53;;;;;;;;;;;30.60;56.60;;;;;;5066155;28;43666;-84
2023/08/26 12:00:19;;;;;;;;;;;30.70;56.70;;;;;;5064605;28;42929;-94
2023/08/26 12:02:45;;;;;;;;;;;30.70;56.80;;;;;;5064021;28;43034;-91
2023/08/26 12:05:11;;;;;;;;;;;30.80;56.80;;;;;;5061372;28;42972;-91
2023/08/26 12:07:42;;;;;;;;;;;30.80;56.70;;;;;;5063223;28;43062;-92
2023/08/26 12:10:11;;;;;;;;;;;30.80;56.60;;;;;;5063033;28;43037;-86
2023/08/26 12:12:37;;;;;;;;;;;31.00;56.40;;;;;;5063925;28;42948;-88
2023/08/26 12:15:06;;;;;;;;;;;30.80;56.70;;;;;;5062072;28;42983;-85
2023/08/26 12:17:32;;;;;;;;;;;30.90;54.90;;;;;;5062611;28;43080;-87
2023/08/26 12:19:57;;;;;;;;;;;30.80;56.40;;;;;;5067145;28;43054;-81
2023/08/26 12:22:23;;;;;;;;;;;30.80;56.40;;;;;;5071647;28;43006;-82
2023/08/26 12:24:48;;;;;;;;;;;30.80;56.30;;;;;;5071768;27;43132;-88
2023/08/26 12:27:14;;;;;;;;;;;30.80;56.10;;;;;;5072935;28;43031;-83
2023/08/26 12:29:39;;;;;;;;;;;30.70;55.90;;;;;;5077472;28;42932;-89
2023/08/26 12:32:05;;;;;;;;;;;30.80;56.30;;;;;;5072287;28;44167;-83
2023/08/26 12:34:32;;;;;;;;;;;30.80;55.80;;;;;;5075607;27;42902;-86
2023/08/26 12:36:58;;;;;;;;;;;30.80;55.80;;;;;;5074019;28;44662;-85
2023/08/26 12:39:26;;;;;;;;;;;30.70;55.70;;;;;;5077458;28;42962;-90
2023/08/26 12:41:53;;;;;;;;;;;32.20;54.50;;;;;;5072415;28;43489;-83
2023/08/26 12:44:18;;;;;;;;;;;30.80;56.10;;;;;;5074342;28;43001;-83
2023/08/26 12:46:44;;;;;;;;;;;30.80;56.20;;;;;;5077024;28;42953;-81
2023/08/26 12:49:10;;;;;;;;;;;30.80;56.40;;;;;;5069749;28;43006;-83
2023/08/26 12:51:35;;;;;;;;;;;30.90;56.50;;;;;;5072897;28;44363;-78
2023/08/26 12:54:01;;;;;;;;;;;30.80;55.50;;;;;;5071140;27;43061;-83
2023/08/26 12:56:26;;;;;;;;;;;31.10;56.30;;;;;;5073232;28;42898;-83
2023/08/26 12:58:52;;;;;;;;;;;30.90;56.20;;;;;;5077207;28;43387;-77
2023/08/26 13:01:18;;;;;;;;;;;30.90;56.00;;;;;;5074727;28;43524;-83
2023/08/26 13:03:43;;;;;;;;;;;30.80;55.30;;;;;;5068100;27;43094;-83
2023/08/26 13:06:09;;;;;;;;;;;30.70;55.70;;;;;;5072412;28;43157;-84
2023/08/26 13:08:35;;;;;;;;;;;30.80;55.90;;;;;;5056531;28;43133;-83
2023/08/26 13:11:01;;;;;;;;;;;30.70;55.00;;;;;;5061779;28;42936;-85
2023/08/26 13:13:30;;;;;;;;;;;30.90;55.60;;;;;;5057492;28;42979;-83
2023/08/26 13:15:55;;;;;;;;;;;30.80;55.10;;;;;;5054033;28;44908;-80
2023/08/26 13:18:21;;;;;;;;;;;31.00;55.30;;;;;;5056462;28;42982;-85
2023/08/26 13:20:47;;;;;;;;;;;30.90;55.80;;;;;;5058278;28;42994;-83
2023/08/26 13:23:13;;;;;;;;;;;30.60;55.40;;;;;;5059914;28;42979;-84
2023/08/26 13:25:39;;;;;;;;;;;30.90;55.50;;;;;;5057517;28;43382;-83
2023/08/26 13:28:05;;;;;;;;;;;31.20;55.90;;;;;;5057137;28;42930;-78
2023/08/26 13:30:31;;;;;;;;;;;31.30;55.40;;;;;;5054960;28;43631;-84
2023/08/26 13:32:57;;;;;;;;;;;31.00;55.60;;;;;;5056092;28;42941;-84
2023/08/26 13:35:22;;;;;;;;;;;30.90;55.20;;;;;;5056203;28;43446;-83
2023/08/26 13:37:48;;;;;;;;;;;31.00;55.30;;;;;;5056933;28;43058;-84
2023/08/26 13:40:13;;;;;;;;;;;30.90;55.00;;;;;;5054983;28;43793;-82
2023/08/26 13:42:39;;;;;;;;;;;30.90;55.30;;;;;;5057412;28;43063;-78
2023/08/26 13:45:05;;;;;;;;;;;30.90;54.70;;;;;;5055322;28;44586;-79
2023/08/26 13:47:31;;;;;;;;;;;30.90;54.10;;;;;;5054859;28;42930;-82
2023/08/26 13:49:56;;;;;;;;;;;31.00;54.60;;;;;;5056196;28;44189;-78
2023/08/26 13:52:22;;;;;;;;;;;30.90;54.90;;;;;;5055912;28;43027;-83
2023/08/26 13:54:47;;;;;;;;;;;31.10;55.00;;;;;;5056733;28;42821;-83
2023/08/26 13:57:13;;;;;;;;;;;31.10;54.60;;;;;;5052836;28;42999;-80
2023/08/26 13:59:39;;;;;;;;;;;31.00;54.50;;;;;;5055067;28;44058;-81
2023/08/26 14:02:05;;;;;;;;;;;31.00;54.90;;;;;;5056109;28;42886;-78
2023/08/26 14:04:31;;;;;;;;;;;31.10;55.30;;;;;;5055318;28;43160;-80
2023/08/26 14:06:56;;;;;;;;;;;31.00;54.70;;;;;;5056868;28;43024;-83
2023/08/26 14:09:22;;;;;;;;;;;31.00;54.80;;;;;;5055264;28;42967;-83
2023/08/26 14:11:47;;;;;;;;;;;31.00;55.30;;;;;;5056130;28;42979;-85